sensor_id;sensor_type;location;lat;lon;timestamp;pressure;altitude;pressure_sealevel;temperature;humidity
66857;BME280;53766;50.280;19.160;2023-02-03T00:02:06;98984.56;;;14.53;45.42
66857;BME280;53766;50.280;19.160;2023-02-03T00:04:33;98981.78;;;14.55;45.48
66857;BME280;53766;50.280;19.160;2023-02-03T00:07:01;98978.44;;;14.53;45.70
66857;BME280;53766;50.280;19.160;2023-02-03T00:09:28;98990.69;;;14.54;45.70
66857;BME280;53766;50.280;19.160;2023-02-03T00:11:56;98997.69;;;14.55;45.58
66857;BME280;53766;50.280;19.160;2023-02-03T00:14:23;99000.34;;;14.55;45.52
66857;BME280;53766;50.280;19.160;2023-02-03T00:16:51;98995.16;;;14.53;45.74
66857;BME280;53766;50.280;19.160;2023-02-03T00:19:18;98997.97;;;14.52;45.46
66857;BME280;53766;50.280;19.160;2023-02-03T00:21:46;98999.63;;;14.53;45.76
66857;BME280;53766;50.280;19.160;2023-02-03T00:24:13;98997.81;;;14.53;45.31
66857;BME280;53766;50.280;19.160;2023-02-03T00:26:41;98996.78;;;14.54;45.58
66857;BME280;53766;50.280;19.160;2023-02-03T00:29:09;98995.97;;;14.54;45.44
66857;BME280;53766;50.280;19.160;2023-02-03T00:31:36;98998.63;;;14.54;45.25
66857;BME280;53766;50.280;19.160;2023-02-03T00:34:04;99001.28;;;14.54;45.20
66857;BME280;53766;50.280;19.160;2023-02-03T00:36:31;99008.28;;;14.55;45.29
66857;BME280;53766;50.280;19.160;2023-02-03T00:38:59;99004.94;;;14.53;45.25
66857;BME280;53766;50.280;19.160;2023-02-03T00:41:29;99014.69;;;14.52;45.59
66857;BME280;53766;50.280;19.160;2023-02-03T00:43:57;99024.19;;;14.55;45.47
66857;BME280;53766;50.280;19.160;2023-02-03T00:46:24;99018.19;;;14.53;45.40
66857;BME280;53766;50.280;19.160;2023-02-03T00:48:52;99019.00;;;14.53;45.29
66857;BME280;53766;50.280;19.160;2023-02-03T00:51:19;99022.47;;;14.54;45.43
66857;BME280;53766;50.280;19.160;2023-02-03T00:53:48;99031.44;;;14.53;45.22
66857;BME280;53766;50.280;19.160;2023-02-03T00:56:15;99017.53;;;14.51;45.57
66857;BME280;53766;50.280;19.160;2023-02-03T00:58:43;99019.97;;;14.52;45.12
66857;BME280;53766;50.280;19.160;2023-02-03T01:01:10;99016.50;;;14.52;45.13
66857;BME280;53766;50.280;19.160;2023-02-03T01:03:38;99016.69;;;14.50;45.42
66857;BME280;53766;50.280;19.160;2023-02-03T01:06:14;99011.22;;;14.52;45.45
66857;BME280;53766;50.280;19.160;2023-02-03T01:08:42;99013.03;;;14.51;45.07
66857;BME280;53766;50.280;19.160;2023-02-03T01:11:17;99009.22;;;14.46;45.32
66857;BME280;53766;50.280;19.160;2023-02-03T01:13:45;99009.22;;;14.46;45.28
66857;BME280;53766;50.280;19.160;2023-02-03T01:16:14;99007.56;;;14.45;45.22
66857;BME280;53766;50.280;19.160;2023-02-03T01:18:42;99004.25;;;14.43;45.27
66857;BME280;53766;50.280;19.160;2023-02-03T01:21:18;99004.25;;;14.43;45.06
66857;BME280;53766;50.280;19.160;2023-02-03T01:23:46;98992.00;;;14.42;45.08
66857;BME280;53766;50.280;19.160;2023-02-03T01:26:16;99000.94;;;14.40;45.39
66857;BME280;53766;50.280;19.160;2023-02-03T01:28:51;98996.66;;;14.39;45.27
66857;BME280;53766;50.280;19.160;2023-02-03T01:31:24;98995.97;;;14.37;45.11
66857;BME280;53766;50.280;19.160;2023-02-03T01:33:54;99000.44;;;14.37;45.29
66857;BME280;53766;50.280;19.160;2023-02-03T01:36:24;98995.97;;;14.37;44.99
66857;BME280;53766;50.280;19.160;2023-02-03T01:38:52;98999.59;;;14.36;45.04
66857;BME280;53766;50.280;19.160;2023-02-03T01:41:28;98993.34;;;14.37;45.14
66857;BME280;53766;50.280;19.160;2023-02-03T01:43:57;98990.84;;;14.36;44.83
66857;BME280;53766;50.280;19.160;2023-02-03T01:46:35;98992.66;;;14.35;45.01
66857;BME280;53766;50.280;19.160;2023-02-03T01:49:15;98996.97;;;14.36;45.26
66857;BME280;53766;50.280;19.160;2023-02-03T01:51:45;98985.69;;;14.34;44.81
66857;BME280;53766;50.280;19.160;2023-02-03T01:54:20;98983.03;;;14.34;45.13
66857;BME280;53766;50.280;19.160;2023-02-03T01:56:53;98989.34;;;14.33;45.05
66857;BME280;53766;50.280;19.160;2023-02-03T01:59:22;98988.53;;;14.33;44.90
66857;BME280;53766;50.280;19.160;2023-02-03T02:01:51;98982.38;;;14.32;45.09
66857;BME280;53766;50.280;19.160;2023-02-03T02:04:22;98980.72;;;14.31;44.91
66857;BME280;53766;50.280;19.160;2023-02-03T02:06:55;98986.03;;;14.31;44.74
66857;BME280;53766;50.280;19.160;2023-02-03T02:09:25;98982.38;;;14.32;44.79
66857;BME280;53766;50.280;19.160;2023-02-03T02:11:53;98970.97;;;14.32;45.19
66857;BME280;53766;50.280;19.160;2023-02-03T02:14:20;98971.78;;;14.32;44.92
66857;BME280;53766;50.280;19.160;2023-02-03T02:16:51;98976.25;;;14.32;44.67
66857;BME280;53766;50.280;19.160;2023-02-03T02:19:43;98972.13;;;14.29;44.83
66857;BME280;53766;50.280;19.160;2023-02-03T02:33:57;98965.16;;;14.28;45.03
66857;BME280;53766;50.280;19.160;2023-02-03T02:39:46;98956.53;;;14.26;44.89
66857;BME280;53766;50.280;19.160;2023-02-03T02:42:20;98965.16;;;14.28;44.81
66857;BME280;53766;50.280;19.160;2023-02-03T02:44:54;98963.16;;;14.30;44.81
66857;BME280;53766;50.280;19.160;2023-02-03T02:47:24;98955.72;;;14.34;44.83
66857;BME280;53766;50.280;19.160;2023-02-03T02:50:04;98947.94;;;14.32;44.94
66857;BME280;53766;50.280;19.160;2023-02-03T02:52:35;98942.63;;;14.32;44.65
66857;BME280;53766;50.280;19.160;2023-02-03T02:55:12;98939.97;;;14.32;44.98
66857;BME280;53766;50.280;19.160;2023-02-03T02:57:41;98925.75;;;14.33;44.93
66857;BME280;53766;50.280;19.160;2023-02-03T03:00:11;98926.41;;;14.35;45.05
66857;BME280;53766;50.280;19.160;2023-02-03T03:02:38;98927.91;;;14.38;44.85
66857;BME280;53766;50.280;19.160;2023-02-03T03:05:07;98932.84;;;14.41;45.02
66857;BME280;53766;50.280;19.160;2023-02-03T03:07:57;98927.41;;;14.43;44.74
66857;BME280;53766;50.280;19.160;2023-02-03T03:10:30;98931.38;;;14.47;44.66
66857;BME280;53766;50.280;19.160;2023-02-03T03:13:02;98935.88;;;14.46;44.94
66857;BME280;53766;50.280;19.160;2023-02-03T03:15:32;98949.59;;;14.50;45.10
66857;BME280;53766;50.280;19.160;2023-02-03T03:20:38;98978.44;;;14.53;44.83
66857;BME280;53766;50.280;19.160;2023-02-03T03:23:19;98965.88;;;14.55;44.89
66857;BME280;53766;50.280;19.160;2023-02-03T03:25:54;98968.19;;;14.58;44.90
66857;BME280;53766;50.280;19.160;2023-02-03T03:28:32;98967.19;;;14.59;44.95
66857;BME280;53766;50.280;19.160;2023-02-03T03:31:01;98948.81;;;14.57;44.79
66857;BME280;53766;50.280;19.160;2023-02-03T03:33:28;98948.47;;;14.60;44.92
66857;BME280;53766;50.280;19.160;2023-02-03T03:36:23;98946.97;;;14.66;44.89
66857;BME280;53766;50.280;19.160;2023-02-03T03:39:02;98940.19;;;14.64;44.69
66857;BME280;53766;50.280;19.160;2023-02-03T03:41:40;98948.63;;;14.67;44.80
66857;BME280;53766;50.280;19.160;2023-02-03T03:44:12;98933.56;;;14.68;44.86
66857;BME280;53766;50.280;19.160;2023-02-03T03:46:45;98934.38;;;14.68;44.85
66857;BME280;53766;50.280;19.160;2023-02-03T03:49:17;98927.09;;;14.70;45.03
66857;BME280;53766;50.280;19.160;2023-02-03T03:51:55;98924.59;;;14.69;44.86
66857;BME280;53766;50.280;19.160;2023-02-03T03:54:25;98914.81;;;14.69;44.81
66857;BME280;53766;50.280;19.160;2023-02-03T03:57:01;98916.47;;;14.70;44.82
66857;BME280;53766;50.280;19.160;2023-02-03T03:59:31;98906.53;;;14.72;44.75
66857;BME280;53766;50.280;19.160;2023-02-03T04:02:01;98909.19;;;14.72;45.06
66857;BME280;53766;50.280;19.160;2023-02-03T04:04:33;98903.69;;;14.74;45.00
66857;BME280;53766;50.280;19.160;2023-02-03T04:07:01;98902.88;;;14.73;44.97
66857;BME280;53766;50.280;19.160;2023-02-03T04:09:28;98910.00;;;14.73;44.94
66857;BME280;53766;50.280;19.160;2023-02-03T04:11:56;98907.19;;;14.74;44.83
66857;BME280;53766;50.280;19.160;2023-02-03T04:14:33;98908.19;;;14.73;45.03
66857;BME280;53766;50.280;19.160;2023-02-03T04:17:01;98908.84;;;14.75;44.98
66857;BME280;53766;50.280;19.160;2023-02-03T04:19:29;98904.34;;;14.76;45.00
66857;BME280;53766;50.280;19.160;2023-02-03T04:21:56;98905.22;;;14.76;44.99
66857;BME280;53766;50.280;19.160;2023-02-03T04:24:24;98898.22;;;14.75;44.86
66857;BME280;53766;50.280;19.160;2023-02-03T04:26:51;98892.94;;;14.75;44.94
66857;BME280;53766;50.280;19.160;2023-02-03T04:29:18;98890.28;;;14.75;44.83
66857;BME280;53766;50.280;19.160;2023-02-03T04:31:46;98884.81;;;14.77;45.01
66857;BME280;53766;50.280;19.160;2023-02-03T04:34:13;98885.63;;;14.77;44.89
66857;BME280;53766;50.280;19.160;2023-02-03T04:36:41;98882.63;;;14.80;44.67
66857;BME280;53766;50.280;19.160;2023-02-03T04:39:08;98879.50;;;14.77;44.87
66857;BME280;53766;50.280;19.160;2023-02-03T04:41:36;98887.13;;;14.80;44.67
66857;BME280;53766;50.280;19.160;2023-02-03T04:44:04;98886.47;;;14.78;44.72
66857;BME280;53766;50.280;19.160;2023-02-03T04:46:31;98881.16;;;14.78;44.53
66857;BME280;53766;50.280;19.160;2023-02-03T04:48:58;98875.84;;;14.78;44.87
66857;BME280;53766;50.280;19.160;2023-02-03T04:51:26;98869.72;;;14.77;45.02
66857;BME280;53766;50.280;19.160;2023-02-03T04:53:53;98860.13;;;14.76;45.12
66857;BME280;53766;50.280;19.160;2023-02-03T04:56:21;98855.13;;;14.81;44.58
66857;BME280;53766;50.280;19.160;2023-02-03T04:58:48;98855.47;;;14.78;44.65
66857;BME280;53766;50.280;19.160;2023-02-03T05:01:15;98848.53;;;14.77;44.94
66857;BME280;53766;50.280;19.160;2023-02-03T05:03:43;98842.19;;;14.78;44.75
66857;BME280;53766;50.280;19.160;2023-02-03T05:06:10;98839.56;;;14.78;45.02
66857;BME280;53766;50.280;19.160;2023-02-03T05:08:38;98831.59;;;14.78;44.69
66857;BME280;53766;50.280;19.160;2023-02-03T05:11:05;98837.56;;;14.80;44.75
66857;BME280;53766;50.280;19.160;2023-02-03T05:13:33;98834.09;;;14.80;44.64
66857;BME280;53766;50.280;19.160;2023-02-03T05:16:00;98816.34;;;14.80;44.64
66857;BME280;53766;50.280;19.160;2023-02-03T05:18:27;98806.75;;;14.79;44.72
66857;BME280;53766;50.280;19.160;2023-02-03T05:20:55;98805.75;;;14.80;44.75
66857;BME280;53766;50.280;19.160;2023-02-03T05:23:22;98799.97;;;14.77;44.81
66857;BME280;53766;50.280;19.160;2023-02-03T05:25:51;98796.16;;;14.79;44.93
66857;BME280;53766;50.280;19.160;2023-02-03T05:28:18;98788.19;;;14.79;44.95
66857;BME280;53766;50.280;19.160;2023-02-03T05:30:46;98781.41;;;14.77;44.75
66857;BME280;53766;50.280;19.160;2023-02-03T05:33:13;98781.41;;;14.77;44.96
66857;BME280;53766;50.280;19.160;2023-02-03T05:35:40;98779.56;;;14.77;44.67
66857;BME280;53766;50.280;19.160;2023-02-03T05:38:08;98778.75;;;14.77;45.04
66857;BME280;53766;50.280;19.160;2023-02-03T05:40:35;98770.97;;;14.75;44.75
66857;BME280;53766;50.280;19.160;2023-02-03T05:43:21;98776.09;;;14.77;44.67
66857;BME280;53766;50.280;19.160;2023-02-03T05:45:49;98774.28;;;14.77;44.95
66857;BME280;53766;50.280;19.160;2023-02-03T05:48:16;98773.63;;;14.75;45.02
66857;BME280;53766;50.280;19.160;2023-02-03T05:50:44;98774.44;;;14.76;44.65
66857;BME280;53766;50.280;19.160;2023-02-03T05:53:11;98772.63;;;14.76;44.84
66857;BME280;53766;50.280;19.160;2023-02-03T05:55:38;98761.38;;;14.74;44.80
66857;BME280;53766;50.280;19.160;2023-02-03T05:58:07;98761.38;;;14.74;44.65
66857;BME280;53766;50.280;19.160;2023-02-03T06:00:34;98754.25;;;14.75;44.83
66857;BME280;53766;50.280;19.160;2023-02-03T06:03:02;98751.59;;;14.75;44.66
66857;BME280;53766;50.280;19.160;2023-02-03T06:05:31;98746.13;;;14.76;44.86
66857;BME280;53766;50.280;19.160;2023-02-03T06:07:59;98732.66;;;14.78;44.59
66857;BME280;53766;50.280;19.160;2023-02-03T06:10:27;98738.78;;;14.78;44.52
66857;BME280;53766;50.280;19.160;2023-02-03T06:12:55;98735.16;;;14.79;44.37
66857;BME280;53766;50.280;19.160;2023-02-03T06:15:22;98739.81;;;14.77;44.44
66857;BME280;53766;50.280;19.160;2023-02-03T06:17:50;98734.81;;;14.82;44.36
66857;BME280;53766;50.280;19.160;2023-02-03T06:20:19;98727.22;;;14.79;44.69
66857;BME280;53766;50.280;19.160;2023-02-03T06:22:46;98732.66;;;14.78;44.21
66857;BME280;53766;50.280;19.160;2023-02-03T06:25:14;98728.19;;;14.78;44.26
66857;BME280;53766;50.280;19.160;2023-02-03T06:27:42;98722.06;;;14.78;44.22
66857;BME280;53766;50.280;19.160;2023-02-03T06:30:10;98722.56;;;14.81;44.09
66857;BME280;53766;50.280;19.160;2023-02-03T06:32:38;98725.88;;;14.84;44.33
66857;BME280;53766;50.280;19.160;2023-02-03T06:35:06;98720.69;;;14.90;44.25
66857;BME280;53766;50.280;19.160;2023-02-03T06:37:34;98719.50;;;14.93;44.15
66857;BME280;53766;50.280;19.160;2023-02-03T06:40:02;98725.94;;;14.98;44.13
66857;BME280;53766;50.280;19.160;2023-02-03T06:42:30;98716.44;;;15.04;44.05
66857;BME280;53766;50.280;19.160;2023-02-03T06:44:58;98705.50;;;15.07;43.81
66857;BME280;53766;50.280;19.160;2023-02-03T06:47:25;98699.84;;;15.10;43.77
66857;BME280;53766;50.280;19.160;2023-02-03T06:49:52;98694.16;;;15.13;43.77
66857;BME280;53766;50.280;19.160;2023-02-03T06:52:20;98701.78;;;15.16;43.52
66857;BME280;53766;50.280;19.160;2023-02-03T06:54:48;98702.06;;;15.21;43.63
66857;BME280;53766;50.280;19.160;2023-02-03T06:57:15;98696.59;;;15.23;43.90
66857;BME280;53766;50.280;19.160;2023-02-03T06:59:42;98689.13;;;15.27;43.70
66857;BME280;53766;50.280;19.160;2023-02-03T07:02:10;98688.94;;;15.28;43.69
66857;BME280;53766;50.280;19.160;2023-02-03T07:04:38;98676.31;;;15.30;43.71
66857;BME280;53766;50.280;19.160;2023-02-03T07:07:05;98680.63;;;15.31;43.51
66857;BME280;53766;50.280;19.160;2023-02-03T07:09:33;98679.59;;;15.32;43.59
66857;BME280;53766;50.280;19.160;2023-02-03T07:12:00;98683.72;;;15.35;43.49
66857;BME280;53766;50.280;19.160;2023-02-03T07:14:28;98673.31;;;15.33;43.46
66857;BME280;53766;50.280;19.160;2023-02-03T07:16:57;98658.50;;;15.39;43.29
66857;BME280;53766;50.280;19.160;2023-02-03T07:19:24;98653.38;;;15.37;43.58
66857;BME280;53766;50.280;19.160;2023-02-03T07:21:51;98648.06;;;15.37;43.49
66857;BME280;53766;50.280;19.160;2023-02-03T07:24:19;98653.19;;;15.39;43.52
66857;BME280;53766;50.280;19.160;2023-02-03T07:26:46;98655.50;;;15.42;43.18
66857;BME280;53766;50.280;19.160;2023-02-03T07:29:14;98643.38;;;15.39;43.55
66857;BME280;53766;50.280;19.160;2023-02-03T07:31:41;98638.72;;;15.41;43.24
66857;BME280;53766;50.280;19.160;2023-02-03T07:34:09;98636.91;;;15.42;43.37
66857;BME280;53766;50.280;19.160;2023-02-03T07:36:36;98636.28;;;15.40;43.46
66857;BME280;53766;50.280;19.160;2023-02-03T07:39:04;98630.13;;;15.39;43.42
66857;BME280;53766;50.280;19.160;2023-02-03T07:41:31;98628.09;;;15.41;43.26
66857;BME280;53766;50.280;19.160;2023-02-03T07:43:59;98622.63;;;15.43;43.38
66857;BME280;53766;50.280;19.160;2023-02-03T07:46:26;98622.81;;;15.41;43.39
66857;BME280;53766;50.280;19.160;2023-02-03T07:48:54;98619.16;;;15.42;43.37
66857;BME280;53766;50.280;19.160;2023-02-03T07:51:21;98612.19;;;15.41;43.42
66857;BME280;53766;50.280;19.160;2023-02-03T07:53:49;98604.06;;;15.43;43.15
66857;BME280;53766;50.280;19.160;2023-02-03T07:56:16;98598.75;;;15.43;43.02
66857;BME280;53766;50.280;19.160;2023-02-03T07:58:43;98588.13;;;15.43;43.16
66857;BME280;53766;50.280;19.160;2023-02-03T08:01:13;98591.44;;;15.45;43.16
66857;BME280;53766;50.280;19.160;2023-02-03T08:03:41;98582.00;;;15.42;43.12
66857;BME280;53766;50.280;19.160;2023-02-03T08:06:09;98576.03;;;15.40;43.26
66857;BME280;53766;50.280;19.160;2023-02-03T08:08:37;98568.91;;;15.41;43.20
66857;BME280;53766;50.280;19.160;2023-02-03T08:11:04;98563.97;;;15.38;43.21
66857;BME280;53766;50.280;19.160;2023-02-03T08:13:32;98567.63;;;15.37;43.20
66857;BME280;53766;50.280;19.160;2023-02-03T08:15:59;98565.97;;;15.36;43.30
66857;BME280;53766;50.280;19.160;2023-02-03T08:18:27;98559.00;;;15.35;43.17
66857;BME280;53766;50.280;19.160;2023-02-03T08:20:57;98540.25;;;15.36;43.17
66857;BME280;53766;50.280;19.160;2023-02-03T08:23:25;98544.75;;;15.36;43.18
66857;BME280;53766;50.280;19.160;2023-02-03T08:25:52;98536.13;;;15.34;43.13
66857;BME280;53766;50.280;19.160;2023-02-03T08:28:20;98541.28;;;15.35;42.95
66857;BME280;53766;50.280;19.160;2023-02-03T08:30:47;98541.63;;;15.32;42.90
66857;BME280;53766;50.280;19.160;2023-02-03T08:33:15;98533.31;;;15.35;42.95
66857;BME280;53766;50.280;19.160;2023-02-03T08:35:48;98525.16;;;15.37;42.95
66857;BME280;53766;50.280;19.160;2023-02-03T08:38:16;98521.84;;;15.35;42.99
66857;BME280;53766;50.280;19.160;2023-02-03T08:40:43;98519.41;;;15.33;42.80
66857;BME280;53766;50.280;19.160;2023-02-03T08:43:11;98516.91;;;15.32;42.93
66857;BME280;53766;50.280;19.160;2023-02-03T08:45:39;98505.28;;;15.33;43.09
66857;BME280;53766;50.280;19.160;2023-02-03T08:48:07;98501.66;;;15.34;43.02
66857;BME280;53766;50.280;19.160;2023-02-03T08:50:34;98499.97;;;15.33;42.71
66857;BME280;53766;50.280;19.160;2023-02-03T08:53:02;98492.03;;;15.33;42.67
66857;BME280;53766;50.280;19.160;2023-02-03T08:55:29;98503.47;;;15.33;42.89
66857;BME280;53766;50.280;19.160;2023-02-03T08:57:57;98492.41;;;15.30;42.91
66857;BME280;53766;50.280;19.160;2023-02-03T09:00:25;98497.06;;;15.28;43.21
66857;BME280;53766;50.280;19.160;2023-02-03T09:02:53;98498.09;;;15.27;43.37
66857;BME280;53766;50.280;19.160;2023-02-03T09:05:20;98498.91;;;15.27;43.51
66857;BME280;53766;50.280;19.160;2023-02-03T09:07:48;98486.81;;;15.25;43.40
66857;BME280;53766;50.280;19.160;2023-02-03T09:10:15;98481.69;;;15.23;43.59
66857;BME280;53766;50.280;19.160;2023-02-03T09:12:43;98476.22;;;15.25;43.58
66857;BME280;53766;50.280;19.160;2023-02-03T09:15:11;98471.91;;;15.23;43.55
66857;BME280;53766;50.280;19.160;2023-02-03T09:17:38;98466.59;;;15.23;43.73
66857;BME280;53766;50.280;19.160;2023-02-03T09:20:06;98469.25;;;15.23;43.42
66857;BME280;53766;50.280;19.160;2023-02-03T09:22:34;98462.09;;;15.24;43.69
66857;BME280;53766;50.280;19.160;2023-02-03T09:25:01;98455.97;;;15.23;43.54
66857;BME280;53766;50.280;19.160;2023-02-03T09:27:29;98452.50;;;15.23;43.56
66857;BME280;53766;50.280;19.160;2023-02-03T09:29:56;98446.56;;;15.21;43.64
66857;BME280;53766;50.280;19.160;2023-02-03T09:32:24;98432.28;;;15.22;43.76
66857;BME280;53766;50.280;19.160;2023-02-03T09:34:52;98433.13;;;15.22;43.61
66857;BME280;53766;50.280;19.160;2023-02-03T09:37:19;98422.50;;;15.22;43.79
66857;BME280;53766;50.280;19.160;2023-02-03T09:39:47;98413.69;;;15.22;43.75
66857;BME280;53766;50.280;19.160;2023-02-03T09:42:43;98412.53;;;15.25;43.88
66857;BME280;53766;50.280;19.160;2023-02-03T09:45:27;98388.66;;;15.25;43.95
66857;BME280;53766;50.280;19.160;2023-02-03T09:48:05;98388.66;;;15.25;43.93
66857;BME280;53766;50.280;19.160;2023-02-03T09:50:37;98378.03;;;15.25;43.88
66857;BME280;53766;50.280;19.160;2023-02-03T09:53:21;98383.34;;;15.25;44.22
66857;BME280;53766;50.280;19.160;2023-02-03T09:55:49;98366.41;;;15.26;44.18
66857;BME280;53766;50.280;19.160;2023-02-03T09:58:18;98355.16;;;15.23;43.87
66857;BME280;53766;50.280;19.160;2023-02-03T10:00:55;98344.53;;;15.23;44.18
66857;BME280;53766;50.280;19.160;2023-02-03T10:06:08;98323.78;;;15.27;44.32
66857;BME280;53766;50.280;19.160;2023-02-03T10:09:21;98317.66;;;15.27;43.77
66857;BME280;53766;50.280;19.160;2023-02-03T10:19:45;98273.66;;;15.17;43.22
66857;BME280;53766;50.280;19.160;2023-02-03T10:22:20;98254.44;;;15.15;43.14
66857;BME280;53766;50.280;19.160;2023-02-03T10:27:23;98244.47;;;15.17;43.31
66857;BME280;53766;50.280;19.160;2023-02-03T10:30:24;98240.19;;;15.16;43.53
66857;BME280;53766;50.280;19.160;2023-02-03T10:32:56;98234.72;;;15.18;43.44
66857;BME280;53766;50.280;19.160;2023-02-03T10:35:53;98228.56;;;15.17;43.56
66857;BME280;53766;50.280;19.160;2023-02-03T10:41:07;98200.00;;;15.19;43.54
66857;BME280;53766;50.280;19.160;2023-02-03T10:43:35;98202.88;;;15.18;43.36
66857;BME280;53766;50.280;19.160;2023-02-03T10:46:30;98187.38;;;15.21;43.36
66857;BME280;53766;50.280;19.160;2023-02-03T10:48:59;98187.38;;;15.21;43.33
66857;BME280;53766;50.280;19.160;2023-02-03T10:51:39;98173.13;;;15.22;43.59
66857;BME280;53766;50.280;19.160;2023-02-03T10:57:09;98159.66;;;15.24;43.46
66857;BME280;53766;50.280;19.160;2023-02-03T10:59:43;98149.88;;;15.25;43.44
66857;BME280;53766;50.280;19.160;2023-02-03T11:02:23;98135.59;;;15.26;43.64
66857;BME280;53766;50.280;19.160;2023-02-03T11:07:44;98120.94;;;15.30;43.51
66857;BME280;53766;50.280;19.160;2023-02-03T11:10:34;98109.50;;;15.29;43.48
66857;BME280;53766;50.280;19.160;2023-02-03T11:13:22;98101.34;;;15.31;43.95
66857;BME280;53766;50.280;19.160;2023-02-03T11:18:39;98074.44;;;15.34;43.68
66857;BME280;53766;50.280;19.160;2023-02-03T11:21:11;98068.72;;;15.37;43.88
66857;BME280;53766;50.280;19.160;2023-02-03T11:26:25;98054.47;;;15.38;43.90
66857;BME280;53766;50.280;19.160;2023-02-03T11:28:57;98050.78;;;15.39;43.76
66857;BME280;53766;50.280;19.160;2023-02-03T11:31:28;98034.84;;;15.39;43.97
66857;BME280;53766;50.280;19.160;2023-02-03T11:33:59;98028.75;;;15.38;44.05
66857;BME280;53766;50.280;19.160;2023-02-03T11:36:29;98015.03;;;15.35;44.20
66857;BME280;53766;50.280;19.160;2023-02-03T11:39:19;98011.13;;;15.31;44.10
66857;BME280;53766;50.280;19.160;2023-02-03T11:41:47;97999.28;;;15.27;44.07
66857;BME280;53766;50.280;19.160;2023-02-03T11:44:26;97980.47;;;15.21;44.05
66857;BME280;53766;50.280;19.160;2023-02-03T11:46:59;97980.84;;;15.18;44.31
66857;BME280;53766;50.280;19.160;2023-02-03T11:49:50;97970.63;;;15.15;44.28
66857;BME280;53766;50.280;19.160;2023-02-03T11:55:19;97948.19;;;15.11;44.10
66857;BME280;53766;50.280;19.160;2023-02-03T11:58:06;97951.81;;;15.10;44.42
66857;BME280;53766;50.280;19.160;2023-02-03T12:22:48;97871.16;;;14.98;44.70
66857;BME280;53766;50.280;19.160;2023-02-03T12:31:46;97851.16;;;14.95;44.78
66857;BME280;53766;50.280;19.160;2023-02-03T12:34:28;97834.44;;;14.95;44.55
66857;BME280;53766;50.280;19.160;2023-02-03T12:37:12;97828.50;;;14.93;44.75
66857;BME280;53766;50.280;19.160;2023-02-03T12:39:51;97827.53;;;14.94;44.54
66857;BME280;53766;50.280;19.160;2023-02-03T12:42:30;97823.03;;;14.94;44.60
66857;BME280;53766;50.280;19.160;2023-02-03T12:45:13;97801.38;;;14.91;44.83
66857;BME280;53766;50.280;19.160;2023-02-03T12:47:51;97792.41;;;14.92;44.89
66857;BME280;53766;50.280;19.160;2023-02-03T12:50:41;97782.00;;;14.90;44.63
66857;BME280;53766;50.280;19.160;2023-02-03T12:53:19;97772.22;;;14.91;44.88
66857;BME280;53766;50.280;19.160;2023-02-03T12:56:02;97777.91;;;14.88;45.00
66857;BME280;53766;50.280;19.160;2023-02-03T12:58:55;97760.97;;;14.89;44.91
66857;BME280;53766;50.280;19.160;2023-02-03T13:01:30;97762.81;;;14.88;44.71
66857;BME280;53766;50.280;19.160;2023-02-03T13:04:27;97758.53;;;14.87;44.96
66857;BME280;53766;50.280;19.160;2023-02-03T13:09:55;97741.19;;;14.85;44.73
66857;BME280;53766;50.280;19.160;2023-02-03T13:12:36;97736.09;;;14.83;44.92
66857;BME280;53766;50.280;19.160;2023-02-03T13:20:31;97720.38;;;14.81;44.72
66857;BME280;53766;50.280;19.160;2023-02-03T13:23:06;97694.25;;;14.78;45.08
66857;BME280;53766;50.280;19.160;2023-02-03T13:42:31;97621.22;;;14.69;44.87
66857;BME280;53766;50.280;19.160;2023-02-03T13:47:55;97621.22;;;14.69;44.88
66857;BME280;53766;50.280;19.160;2023-02-03T13:50:27;97617.97;;;14.67;44.87
66857;BME280;53766;50.280;19.160;2023-02-03T13:53:00;97607.38;;;14.67;44.87
66857;BME280;53766;50.280;19.160;2023-02-03T13:55:36;97607.38;;;14.67;44.71
66857;BME280;53766;50.280;19.160;2023-02-03T13:58:06;97596.16;;;14.65;44.65
66857;BME280;53766;50.280;19.160;2023-02-03T14:06:02;97577.22;;;14.68;45.01
66857;BME280;53766;50.280;19.160;2023-02-03T14:16:42;97552.34;;;14.76;44.66
66857;BME280;53766;50.280;19.160;2023-02-03T14:19:12;97546.03;;;14.77;44.79
66857;BME280;53766;50.280;19.160;2023-02-03T14:24:39;97530.31;;;14.82;44.97
66857;BME280;53766;50.280;19.160;2023-02-03T14:27:21;97536.06;;;14.86;44.96
66857;BME280;53766;50.280;19.160;2023-02-03T14:30:15;97526.69;;;14.90;44.86
66857;BME280;53766;50.280;19.160;2023-02-03T14:32:57;97521.38;;;14.90;44.94
66857;BME280;53766;50.280;19.160;2023-02-03T14:35:37;97514.44;;;14.95;44.57
66857;BME280;53766;50.280;19.160;2023-02-03T14:38:09;97513.63;;;14.95;44.72
66857;BME280;53766;50.280;19.160;2023-02-03T14:40:54;97520.16;;;14.99;44.86
66857;BME280;53766;50.280;19.160;2023-02-03T14:43:59;97503.81;;;15.02;44.68
66857;BME280;53766;50.280;19.160;2023-02-03T14:46:33;97519.34;;;15.05;44.51
66857;BME280;53766;50.280;19.160;2023-02-03T14:54:48;97504.03;;;15.07;44.75
66857;BME280;53766;50.280;19.160;2023-02-03T14:57:44;97506.88;;;15.12;44.71
66857;BME280;53766;50.280;19.160;2023-02-03T15:06:02;97514.84;;;15.12;44.98
66857;BME280;53766;50.280;19.160;2023-02-03T15:08:41;97512.78;;;15.14;44.84
66857;BME280;53766;50.280;19.160;2023-02-03T15:14:27;97525.44;;;15.19;45.05
66857;BME280;53766;50.280;19.160;2023-02-03T15:17:09;97534.81;;;15.21;45.01
66857;BME280;53766;50.280;19.160;2023-02-03T15:19:39;97538.09;;;15.23;44.88
66857;BME280;53766;50.280;19.160;2023-02-03T15:22:26;97538.50;;;15.20;45.06
66857;BME280;53766;50.280;19.160;2023-02-03T15:24:59;97520.13;;;15.26;45.14
66857;BME280;53766;50.280;19.160;2023-02-03T15:27:31;97512.16;;;15.26;45.33
66857;BME280;53766;50.280;19.160;2023-02-03T15:30:14;97508.50;;;15.27;45.10